Time;durP1;ratioP1;P1;durP2;ratioP2;P2;SDS_P1;SDS_P2;PMS_P1;PMS_P2;Temp;Humidity;BMP_temperature;BMP_pressure;BME280_temperature;BME280_humidity;BME280_pressure;Samples;Min_cycle;Max_cycle;Signal;HPM_P1;HPM_P2
2023/12/18 00:02:13;;;;;;;48.85;19.92;;;;;;;-0.86;81.06;97104.03;5084824;28;20052;-88
2023/12/18 00:04:38;;;;;;;46.67;21.55;;;;;;;-1.98;80.82;96945.25;5085333;28;20115;-88
2023/12/18 00:07:04;;;;;;;53.38;22.63;;;;;;;-1.23;80.71;97088.69;5085557;28;20068;-87
2023/12/18 00:09:30;;;;;;;50.60;21.25;;;;;;;-1.47;80.98;97058.09;5084977;28;20064;-88
2023/12/18 00:11:55;;;;;;;53.25;21.58;;;;;;;-1.23;81.14;97096.50;5068163;28;20078;-88
2023/12/18 00:14:21;;;;;;;55.28;22.02;;;;;;;-2.37;80.97;96892.84;5082039;28;20094;-86
2023/12/18 00:16:46;;;;;;;49.78;22.73;;;;;;;-3.18;80.44;96771.94;5081707;28;20127;-88
2023/12/18 00:19:12;;;;;;;46.58;20.90;;;;;;;-2.41;81.09;96893.28;5069653;28;20093;-88
2023/12/18 00:21:37;;;;;;;47.42;21.88;;;;;;;-2.45;80.73;96876.38;5107538;28;20047;-88
2023/12/18 00:24:03;;;;;;;50.03;21.00;;;;;;;-1.89;80.92;96972.13;5077873;28;20044;-88
2023/12/18 00:26:29;;;;;;;52.03;22.80;;;;;;;-3.99;81.19;96633.78;5089477;28;20492;-88
2023/12/18 00:28:54;;;;;;;56.22;22.33;;;;;;;-3.42;80.64;96737.97;5086678;28;20032;-86
2023/12/18 00:31:20;;;;;;;52.53;22.77;;;;;;;-1.20;81.22;97124.81;5073039;28;20028;-87
2023/12/18 00:33:45;;;;;;;57.90;22.85;;;;;;;-1.34;81.19;97091.53;5101331;28;20415;-87
2023/12/18 00:36:11;;;;;;;64.13;23.73;;;;;;;-1.21;81.17;97090.13;5087190;28;20108;-83
2023/12/18 00:38:37;;;;;;;53.85;23.35;;;;;;;-1.18;81.13;97125.47;5088749;28;20055;-85
2023/12/18 00:41:03;;;;;;;55.88;23.75;;;;;;;-1.11;81.45;97110.88;5089992;28;20581;-85
2023/12/18 00:43:28;;;;;;;48.58;23.40;;;;;;;-1.28;81.13;97047.47;5090961;28;20028;-85
2023/12/18 00:45:54;;;;;;;51.63;21.65;;;;;;;-1.29;81.65;97078.84;5073771;28;20044;-85
2023/12/18 00:48:20;;;;;;;60.30;24.35;;;;;;;-1.18;81.50;97070.81;5074984;28;20042;-85
2023/12/18 00:50:45;;;;;;;53.72;23.58;;;;;;;-2.48;81.25;96876.69;5074845;28;20473;-85
2023/12/18 00:53:15;;;;;;;49.88;21.05;;;;;;;-1.21;81.58;97066.72;5080480;28;20143;-85
2023/12/18 00:55:42;;;;;;;55.30;21.77;;;;;;;-1.84;80.68;96989.91;5085368;28;20040;-85
2023/12/18 00:58:07;;;;;;;49.17;20.00;;;;;;;-1.90;81.30;96982.66;5092199;28;20036;-85
2023/12/18 01:00:33;;;;;;;54.53;21.83;;;;;;;-1.82;81.02;96977.53;5097110;28;20078;-85
2023/12/18 01:03:00;;;;;;;46.42;20.02;;;;;;;-1.83;81.02;96965.53;5097134;28;20136;-85
2023/12/18 01:05:25;;;;;;;46.28;21.42;;;;;;;-3.60;80.22;96666.22;5083284;28;20036;-85
2023/12/18 01:07:51;;;;;;;51.67;21.50;;;;;;;-1.50;80.65;97008.13;5088550;28;20032;-85
2023/12/18 01:10:16;;;;;;;44.08;20.38;;;;;;;-2.44;80.10;96844.25;5088776;28;20043;-85
2023/12/18 01:12:42;;;;;;;55.30;24.48;;;;;;;-2.87;79.66;96798.31;5090845;28;20032;-85
2023/12/18 01:15:08;;;;;;;54.53;22.77;;;;;;;-4.05;79.83;96613.66;5101180;28;20035;-85
2023/12/18 01:17:33;;;;;;;47.50;19.63;;;;;;;-4.18;79.81;96582.91;5086837;28;20038;-85
2023/12/18 01:20:03;;;;;;;54.55;21.13;;;;;;;-1.43;80.26;97014.34;5093487;28;20028;-85
2023/12/18 01:22:28;;;;;;;50.42;21.27;;;;;;;-2.66;80.03;96808.34;5113856;28;20042;-85
2023/12/18 01:24:54;;;;;;;49.85;20.00;;;;;;;-3.20;80.33;96743.53;5113381;28;20035;-85
2023/12/18 01:27:20;;;;;;;45.72;18.77;;;;;;;-1.44;80.33;97054.34;5108355;28;20059;-85
2023/12/18 01:29:45;;;;;;;46.95;21.90;;;;;;;-2.79;80.19;96804.38;5077939;28;20039;-85
2023/12/18 01:32:11;;;;;;;52.65;23.02;;;;;;;-1.41;80.84;97025.44;5074702;28;20033;-85
2023/12/18 01:34:38;;;;;;;65.88;25.38;;;;;;;-2.20;80.58;96880.75;5074716;28;20066;-85
2023/12/18 01:37:05;;;;;;;68.45;26.33;;;;;;;-1.24;80.96;97029.78;5086921;28;20032;-85
2023/12/18 01:39:31;;;;;;;68.05;26.23;;;;;;;-1.28;80.62;97050.06;5087106;28;20032;-85
2023/12/18 01:41:59;;;;;;;61.92;25.75;;;;;;;-2.86;80.54;96799.94;5105933;28;20055;-85
2023/12/18 01:44:24;;;;;;;71.00;28.08;;;;;;;-2.65;81.03;96822.97;5085166;28;20028;-85
2023/12/18 01:46:50;;;;;;;64.47;26.60;;;;;;;-2.74;81.02;96809.09;5072660;28;20035;-89
2023/12/18 01:49:16;;;;;;;62.33;25.52;;;;;;;-2.91;80.83;96765.84;5083703;28;20138;-88
2023/12/18 01:51:42;;;;;;;65.18;26.00;;;;;;;-3.89;80.82;96634.53;5106686;28;20040;-87
2023/12/18 01:54:11;;;;;;;61.42;25.85;;;;;;;-2.40;80.96;96835.16;5072003;28;20036;-88
2023/12/18 01:56:39;;;;;;;60.75;24.98;;;;;;;-1.43;81.68;97002.16;5083681;28;20117;-87
2023/12/18 01:59:05;;;;;;;61.30;24.55;;;;;;;-1.41;81.40;97005.44;5105305;28;20031;-87
2023/12/18 02:01:31;;;;;;;62.60;27.25;;;;;;;-1.29;81.35;97009.41;5089239;28;20052;-88
2023/12/18 02:03:58;;;;;;;71.95;27.40;;;;;;;-2.38;81.45;96854.84;5095937;28;20040;-87
2023/12/18 02:06:23;;;;;;;68.75;26.60;;;;;;;-2.64;81.26;96799.44;5090107;28;20024;-87
2023/12/18 02:08:49;;;;;;;58.30;25.00;;;;;;;-2.76;81.09;96783.31;5097329;28;20276;-88
2023/12/18 02:11:15;;;;;;;66.95;27.40;;;;;;;-3.43;80.66;96666.34;5110698;28;20048;-88
2023/12/18 02:13:41;;;;;;;59.58;26.08;;;;;;;-3.30;81.18;96716.88;5106088;28;20032;-89
2023/12/18 02:16:07;;;;;;;61.60;24.50;;;;;;;-2.48;81.61;96850.69;5087625;28;20023;-88
2023/12/18 02:18:33;;;;;;;67.47;27.00;;;;;;;-1.42;81.03;97001.19;5085082;28;20053;-87
2023/12/18 02:20:59;;;;;;;59.10;26.20;;;;;;;-2.06;81.42;96895.78;5087197;28;20027;-88
2023/12/18 02:23:24;;;;;;;62.75;25.33;;;;;;;-2.30;81.05;96830.69;5086753;28;20036;-88
2023/12/18 02:25:50;;;;;;;63.58;24.95;;;;;;;-1.73;80.68;96946.22;5086474;28;20363;-88
2023/12/18 02:28:17;;;;;;;61.85;25.63;;;;;;;-1.31;81.05;97006.16;5088124;28;20031;-88
2023/12/18 02:30:44;;;;;;;57.33;24.20;;;;;;;-2.37;80.72;96840.06;5088420;28;20040;-88
2023/12/18 02:33:09;;;;;;;61.22;25.70;;;;;;;-2.63;80.97;96780.31;5079454;28;20126;-88
2023/12/18 02:35:35;;;;;;;59.08;25.55;;;;;;;-1.34;80.80;96998.63;5086622;28;20050;-88
2023/12/18 02:38:01;;;;;;;60.33;24.30;;;;;;;-4.43;80.42;96548.22;5078470;28;20032;-85
2023/12/18 02:40:27;;;;;;;55.35;23.90;;;;;;;-1.45;81.18;97001.50;5091335;28;20055;-85
2023/12/18 02:42:53;;;;;;;66.32;24.45;;;;;;;-1.99;81.13;96906.44;5067195;28;20048;-85
2023/12/18 02:45:18;;;;;;;58.90;24.65;;;;;;;-1.67;80.95;96957.78;5091146;28;20095;-85
2023/12/18 02:47:44;;;;;;;54.22;23.27;;;;;;;-1.90;81.26;96913.28;5075251;28;20483;-85
2023/12/18 02:50:10;;;;;;;60.95;24.63;;;;;;;-1.58;80.97;96980.28;5075507;28;20032;-85
2023/12/18 02:52:35;;;;;;;56.35;24.02;;;;;;;-1.69;80.97;96967.56;5102546;28;20036;-85
2023/12/18 02:55:01;;;;;;;62.05;25.73;;;;;;;-2.41;81.43;96888.09;5080931;28;20679;-85
2023/12/18 02:57:27;;;;;;;54.03;24.63;;;;;;;-2.31;81.57;96904.41;5094782;28;20096;-85
2023/12/18 02:59:53;;;;;;;54.10;23.45;;;;;;;-2.61;81.17;96837.28;5094695;28;20024;-85
2023/12/18 03:02:19;;;;;;;49.30;22.02;;;;;;;-1.62;81.40;96989.38;5087659;28;20098;-85
2023/12/18 03:04:44;;;;;;;58.20;24.98;;;;;;;-1.61;81.59;96989.22;5105274;28;20039;-85
2023/12/18 03:07:10;;;;;;;56.95;23.10;;;;;;;-2.00;81.37;96930.78;5096232;28;20025;-85
2023/12/18 03:09:36;;;;;;;56.47;24.65;;;;;;;-2.62;80.76;96841.66;5098333;28;20044;-85
2023/12/18 03:12:02;;;;;;;54.65;24.08;;;;;;;-2.17;81.25;96942.84;5105887;28;20032;-85
2023/12/18 03:14:28;;;;;;;54.88;22.95;;;;;;;-3.34;81.24;96745.84;5102630;28;20053;-85
2023/12/18 03:16:54;;;;;;;61.08;23.73;;;;;;;-2.63;81.17;96845.22;5089297;28;20115;-85
2023/12/18 03:19:19;;;;;;;65.03;25.48;;;;;;;-1.95;81.48;96942.34;5084983;28;20066;-85
2023/12/18 03:21:46;;;;;;;55.97;23.73;;;;;;;-2.90;81.39;96786.44;5104271;28;20091;-85
2023/12/18 03:24:11;;;;;;;61.33;24.20;;;;;;;-1.63;81.47;97011.16;5097736;28;20028;-85
2023/12/18 03:26:37;;;;;;;53.97;23.92;;;;;;;-2.22;81.63;96895.72;5069513;28;20039;-85
2023/12/18 03:29:03;;;;;;;59.80;25.05;;;;;;;-2.35;81.13;96895.28;5087804;28;20033;-85
2023/12/18 03:31:28;;;;;;;57.33;23.33;;;;;;;-2.81;81.21;96815.88;5077484;28;20518;-85
2023/12/18 03:33:54;;;;;;;61.17;25.13;;;;;;;-2.92;81.14;96793.56;5079566;28;20035;-85
2023/12/18 03:36:19;;;;;;;55.90;23.27;;;;;;;-1.81;80.54;96973.97;5087755;28;20036;-85
2023/12/18 03:38:45;;;;;;;59.08;23.38;;;;;;;-1.73;81.37;97000.84;5081219;28;20119;-85
2023/12/18 03:41:13;;;;;;;57.97;24.63;;;;;;;-2.01;81.48;96932.56;5082987;28;20085;-85
2023/12/18 03:43:39;;;;;;;54.33;24.27;;;;;;;-2.68;81.33;96815.50;5104557;28;20060;-85
2023/12/18 03:46:06;;;;;;;56.80;24.25;;;;;;;-2.72;81.22;96820.16;5080691;28;20040;-85
2023/12/18 03:48:31;;;;;;;66.47;25.02;;;;;;;-2.08;80.99;96946.34;5065412;28;20036;-85
2023/12/18 03:50:57;;;;;;;56.63;23.85;;;;;;;-1.73;81.27;96977.44;5085656;28;20032;-85
2023/12/18 03:53:22;;;;;;;57.53;24.02;;;;;;;-2.63;81.50;96826.22;5087029;28;20089;-85
2023/12/18 03:55:48;;;;;;;59.17;23.60;;;;;;;-2.06;81.57;96923.59;5083340;28;20047;-85
2023/12/18 03:58:14;;;;;;;61.05;24.85;;;;;;;-1.87;81.69;96965.00;5069987;28;20020;-85
2023/12/18 04:00:39;;;;;;;63.95;24.25;;;;;;;-1.71;81.57;96982.50;5070924;28;20037;-85
2023/12/18 04:03:05;;;;;;;54.17;22.73;;;;;;;-2.21;81.34;96899.13;5068257;28;20055;-85
2023/12/18 04:05:31;;;;;;;55.97;24.55;;;;;;;-2.01;81.20;96953.38;5077039;28;20036;-85
2023/12/18 04:07:56;;;;;;;58.05;23.23;;;;;;;-2.64;81.20;96833.22;5077772;28;20034;-87
2023/12/18 04:10:22;;;;;;;56.40;23.70;;;;;;;-1.90;81.24;96960.09;5076119;28;20067;-88
2023/12/18 04:12:47;;;;;;;52.72;23.70;;;;;;;-1.68;81.45;97023.81;5105624;28;20047;-88
2023/12/18 04:15:13;;;;;;;52.42;21.38;;;;;;;-1.89;81.29;96960.91;5103959;28;20043;-87
2023/12/18 04:17:39;;;;;;;50.70;21.38;;;;;;;-2.42;81.11;96870.88;5070563;28;20032;-87
2023/12/18 04:20:05;;;;;;;59.83;24.27;;;;;;;-1.83;81.87;96994.91;5104801;28;20036;-87
2023/12/18 04:22:32;;;;;;;53.60;21.88;;;;;;;-2.95;81.28;96816.41;5068144;28;20473;-88
2023/12/18 04:24:58;;;;;;;55.78;22.50;;;;;;;-3.72;81.37;96667.38;5107013;28;20035;-88
2023/12/18 04:27:24;;;;;;;54.67;21.50;;;;;;;-5.22;81.45;96498.03;5089358;28;20047;-87
2023/12/18 04:29:50;;;;;;;58.03;24.10;;;;;;;-2.02;81.62;96953.50;5075744;28;20036;-88
2023/12/18 04:32:16;;;;;;;52.30;21.92;;;;;;;-1.80;81.36;96996.41;5076439;28;20096;-88
2023/12/18 04:34:45;;;;;;;57.35;23.27;;;;;;;-1.77;81.36;96990.91;5089131;28;20043;-87
2023/12/18 04:37:10;;;;;;;53.97;22.70;;;;;;;-3.81;81.04;96677.84;5069703;28;20039;-87
2023/12/18 04:39:37;;;;;;;59.15;23.42;;;;;;;-1.68;81.46;96990.78;5088805;28;20055;-88
2023/12/18 04:42:03;;;;;;;55.67;22.52;;;;;;;-3.25;81.08;96743.16;5091348;28;20040;-88
2023/12/18 04:44:28;;;;;;;55.03;21.08;;;;;;;-2.27;81.21;96916.13;5095273;28;20467;-88
2023/12/18 04:46:55;;;;;;;52.40;21.23;;;;;;;-4.94;80.71;96471.16;5100864;28;20101;-88
2023/12/18 04:49:20;;;;;;;57.38;24.95;;;;;;;-1.69;81.36;97003.97;5089766;28;20035;-88
2023/12/18 04:51:47;;;;;;;51.53;21.55;;;;;;;-3.57;80.93;96693.59;5089693;28;20036;-87
2023/12/18 04:54:13;;;;;;;52.35;22.85;;;;;;;-3.54;80.99;96717.47;5085917;28;20036;-88
2023/12/18 04:56:39;;;;;;;55.17;22.67;;;;;;;-4.68;81.05;96529.03;5089242;28;20047;-85
2023/12/18 04:59:05;;;;;;;52.60;23.58;;;;;;;-2.88;81.17;96776.72;5067794;28;20033;-85
2023/12/18 05:01:30;;;;;;;55.53;23.30;;;;;;;-3.59;81.05;96682.59;5087353;28;20064;-85
2023/12/18 05:03:56;;;;;;;52.33;24.85;;;;;;;-3.54;80.64;96683.75;5078048;28;20036;-85
2023/12/18 05:06:23;;;;;;;65.63;25.65;;;;;;;-2.85;81.44;96793.78;5082979;28;20507;-85
2023/12/18 05:08:50;;;;;;;58.88;23.77;;;;;;;-1.61;81.44;96991.03;5089934;28;20040;-85
2023/12/18 05:11:20;;;;;;;59.10;24.20;;;;;;;-2.27;80.76;96912.72;5068285;28;20028;-85
2023/12/18 05:13:46;;;;;;;66.40;25.60;;;;;;;-3.03;80.90;96767.84;5087841;28;20047;-85
2023/12/18 05:16:14;;;;;;;57.35;23.17;;;;;;;-1.74;81.02;96961.97;5075546;28;20040;-86
2023/12/18 05:18:40;;;;;;;60.38;24.83;;;;;;;-2.47;80.97;96847.94;5065083;28;20040;-84
2023/12/18 05:21:06;;;;;;;60.75;24.48;;;;;;;-1.66;80.83;96985.44;5087912;28;20055;-85
2023/12/18 05:23:34;;;;;;;59.03;25.25;;;;;;;-1.61;80.87;96997.03;5058472;28;20051;-84
2023/12/18 05:26:02;;;;;;;60.80;23.85;;;;;;;-1.95;80.73;96936.34;5071619;28;20039;-85
2023/12/18 05:28:28;;;;;;;57.97;24.05;;;;;;;-1.70;80.90;96974.53;5067276;28;20042;-85
2023/12/18 05:30:54;;;;;;;52.03;23.90;;;;;;;-1.69;81.01;96975.34;5078526;28;20122;-87
2023/12/18 05:33:23;;;;;;;55.25;23.33;;;;;;;-1.57;81.10;96998.34;5053902;28;20036;-87
2023/12/18 05:35:49;;;;;;;59.15;23.85;;;;;;;-2.88;81.06;96794.06;5081444;28;20479;-85
2023/12/18 05:38:15;;;;;;;55.55;24.33;;;;;;;-1.68;80.92;97011.59;5056442;28;20126;-85
2023/12/18 05:40:40;;;;;;;48.95;22.17;;;;;;;-3.39;81.00;96717.75;5080866;28;20045;-86
2023/12/18 05:43:06;;;;;;;55.90;22.10;;;;;;;-3.71;80.50;96650.06;5061952;28;20062;-86
2023/12/18 05:45:32;;;;;;;50.03;22.25;;;;;;;-1.60;80.89;96998.66;5076725;28;20040;-87
2023/12/18 05:47:59;;;;;;;55.22;23.92;;;;;;;-3.06;81.00;96757.78;5066282;28;20036;-84
2023/12/18 05:50:25;;;;;;;76.15;28.25;;;;;;;-4.72;80.57;96516.50;5066620;28;20035;-85
2023/12/18 05:52:52;;;;;;;72.65;29.55;;;;;;;-4.51;80.87;96513.66;5058519;28;20032;-85
2023/12/18 05:55:18;;;;;;;71.35;28.88;;;;;;;-3.57;80.53;96673.69;5054781;28;20117;-85
2023/12/18 05:57:44;;;;;;;89.00;32.40;;;;;;;-4.08;80.34;96606.16;5077935;28;20790;-88
2023/12/18 06:00:10;;;;;;;77.05;30.23;;;;;;;-4.22;80.42;96565.22;5054691;28;20460;-86
2023/12/18 06:02:36;;;;;;;102.85;38.08;;;;;;;-3.15;81.04;96738.72;5079737;28;20568;-87
2023/12/18 06:05:02;;;;;;;100.07;39.92;;;;;;;-2.96;81.21;96784.44;5060177;28;20040;-86
2023/12/18 06:07:28;;;;;;;104.80;41.67;;;;;;;-2.18;81.48;96911.81;5070531;28;20020;-89
2023/12/18 06:09:57;;;;;;;107.15;41.65;;;;;;;-4.68;81.72;96526.44;5074333;28;20108;-89
2023/12/18 06:12:33;;;;;;;93.05;38.42;;;;;;;-3.32;81.86;96738.72;5078913;28;20035;-88
2023/12/18 06:14:58;;;;;;;100.63;37.72;;;;;;;-5.04;81.64;96441.97;5065332;28;20036;-88
2023/12/18 06:17:27;;;;;;;105.93;41.55;;;;;;;-1.55;82.30;97037.22;5067231;28;20058;-88
2023/12/18 06:19:52;;;;;;;110.78;39.15;;;;;;;-2.78;81.53;96850.16;5064105;28;20097;-89
2023/12/18 06:22:19;;;;;;;95.07;40.13;;;;;;;-2.64;81.69;96840.19;5066217;28;20040;-88
2023/12/18 06:24:44;;;;;;;88.18;38.28;;;;;;;-2.59;81.63;96856.16;5055257;28;20044;-88
2023/12/18 06:27:10;;;;;;;107.40;38.17;;;;;;;-2.20;82.09;96929.31;5073763;28;20036;-88
2023/12/18 06:29:36;;;;;;;96.97;40.60;;;;;;;-1.93;82.35;96978.63;5056785;28;20070;-88
2023/12/18 06:32:01;;;;;;;93.93;40.60;;;;;;;-3.68;81.91;96730.16;5060327;28;20043;-88
2023/12/18 06:34:27;;;;;;;105.53;45.08;;;;;;;-3.51;82.17;96680.06;5062894;28;20066;-88
2023/12/18 06:36:52;;;;;;;103.47;43.80;;;;;;;-3.40;82.58;96713.53;5085709;28;20032;-87
2023/12/18 06:39:18;;;;;;;114.35;45.28;;;;;;;-3.35;82.15;96716.50;5067159;28;20223;-86
2023/12/18 06:41:44;;;;;;;111.38;43.78;;;;;;;-2.62;81.79;96791.50;5086529;28;20047;-86
2023/12/18 06:44:09;;;;;;;98.70;41.95;;;;;;;-3.39;81.63;96667.66;5063902;28;20039;-86
2023/12/18 06:46:35;;;;;;;96.28;39.67;;;;;;;-2.88;81.12;96771.53;5070081;28;20032;-86
2023/12/18 06:49:03;;;;;;;89.72;38.13;;;;;;;-4.50;81.56;96517.88;5069355;28;20028;-86
2023/12/18 06:51:29;;;;;;;99.38;38.25;;;;;;;-1.77;81.71;96933.69;5068668;28;20095;-87
2023/12/18 06:53:55;;;;;;;93.00;40.00;;;;;;;-2.60;81.37;96780.00;5069276;28;20110;-87
2023/12/18 06:56:21;;;;;;;86.70;36.53;;;;;;;-3.39;81.35;96668.47;5084476;28;20107;-88
2023/12/18 06:58:47;;;;;;;83.90;37.72;;;;;;;-1.36;81.99;97010.16;5068061;28;20023;-87
2023/12/18 07:01:16;;;;;;;94.97;35.80;;;;;;;-2.63;81.83;96766.50;5083578;28;20369;-87
2023/12/18 07:03:42;;;;;;;82.57;35.28;;;;;;;-1.18;81.91;96990.09;5071706;28;20040;-86
2023/12/18 07:06:08;;;;;;;85.32;35.65;;;;;;;-2.78;81.56;96735.91;5016425;23;20084;-88
2023/12/18 07:08:33;;;;;;;78.05;34.47;;;;;;;-4.25;81.60;96498.97;5037553;28;20767;-87
2023/12/18 07:10:59;;;;;;;65.72;29.58;;;;;;;-2.01;81.47;96838.97;5010370;28;20100;-88
2023/12/18 07:13:25;;;;;;;84.03;34.85;;;;;;;-1.18;81.65;96964.06;5006906;28;20762;-87
2023/12/18 07:15:50;;;;;;;98.63;42.95;;;;;;;-1.53;81.17;96926.03;5041831;28;20412;-88
2023/12/18 07:18:19;;;;;;;99.95;43.78;;;;;;;-1.90;81.58;96855.25;5010838;28;20109;-89
2023/12/18 07:20:45;;;;;;;82.75;35.55;;;;;;;-1.11;81.64;96977.25;5034934;28;20051;-88
2023/12/18 07:23:10;;;;;;;241.25;42.40;;;;;;;-1.32;81.27;96936.03;5030069;28;20255;-90
2023/12/18 07:25:37;;;;;;;96.38;40.42;;;;;;;-1.00;81.47;96996.03;5032091;28;20042;-90
2023/12/18 07:28:07;;;;;;;93.82;37.65;;;;;;;-1.25;81.33;96934.41;5020892;28;20057;-90
2023/12/18 07:30:33;;;;;;;90.82;38.63;;;;;;;-1.09;81.03;96949.28;5064817;23;20065;-79
2023/12/18 07:32:59;;;;;;;90.68;35.88;;;;;;;-0.77;81.02;96998.06;5026755;28;20036;-80
2023/12/18 07:35:25;;;;;;;79.70;35.92;;;;;;;-1.00;80.51;96969.19;5047100;28;20033;-80
2023/12/18 07:37:50;;;;;;;79.05;35.55;;;;;;;-1.04;80.56;96954.81;5020106;28;20127;-79
2023/12/18 07:40:16;;;;;;;76.85;33.83;;;;;;;-1.21;80.33;96923.53;5019095;28;20037;-79
2023/12/18 07:42:41;;;;;;;76.28;32.75;;;;;;;-0.87;80.70;96966.94;5032340;28;20048;-80
2023/12/18 07:45:07;;;;;;;73.10;32.05;;;;;;;-0.73;80.52;96981.13;5055094;28;20124;-80
2023/12/18 07:47:33;;;;;;;73.65;31.85;;;;;;;-0.76;80.39;96981.47;5033193;28;20044;-80
2023/12/18 07:49:58;;;;;;;69.13;30.33;;;;;;;-0.86;80.04;96956.38;5056004;28;20053;-80
2023/12/18 07:52:24;;;;;;;76.40;35.35;;;;;;;-0.71;79.83;96980.00;5023680;28;20096;-80
2023/12/18 07:54:49;;;;;;;72.07;31.80;;;;;;;-0.65;80.15;96991.56;5020598;28;20208;-80
2023/12/18 07:57:15;;;;;;;82.40;31.30;;;;;;;-0.85;80.46;96960.59;5021293;28;20029;-80
2023/12/18 07:59:41;;;;;;;75.60;33.72;;;;;;;-1.01;80.12;96916.28;5034423;28;20074;-80
2023/12/18 08:02:10;;;;;;;76.15;34.47;;;;;;;-0.94;79.69;96919.06;5058985;28;20119;-80
2023/12/18 08:04:35;;;;;;;72.07;31.60;;;;;;;-1.17;79.82;96864.16;5038205;28;20037;-80
2023/12/18 08:07:02;;;;;;;80.20;32.42;;;;;;;-0.43;80.29;96981.34;5048518;28;20928;-80
2023/12/18 08:09:27;;;;;;;76.43;34.45;;;;;;;-0.55;79.73;96977.44;5033775;28;20048;-80
2023/12/18 08:11:53;;;;;;;78.00;34.25;;;;;;;-0.83;79.88;96927.38;5034967;28;20029;-80
2023/12/18 08:14:19;;;;;;;89.82;39.65;;;;;;;-0.86;80.25;96921.69;5019843;28;20068;-80
2023/12/18 08:16:45;;;;;;;99.97;43.75;;;;;;;-0.69;80.00;96949.41;5024383;28;20529;-80
2023/12/18 08:19:10;;;;;;;105.22;44.70;;;;;;;-0.57;80.45;96953.31;5020172;28;20588;-80
2023/12/18 08:21:36;;;;;;;100.50;44.17;;;;;;;-0.57;80.01;96942.06;5014378;28;20288;-80
2023/12/18 08:24:02;;;;;;;120.93;46.60;;;;;;;-0.77;80.03;96914.69;5053751;28;20061;-80
2023/12/18 08:26:27;;;;;;;109.10;45.30;;;;;;;-0.61;79.73;96938.97;5030978;28;20036;-82
2023/12/18 08:28:53;;;;;;;121.88;48.88;;;;;;;-0.33;79.54;96991.63;5055621;28;20035;-80
2023/12/18 08:31:19;;;;;;;106.57;45.20;;;;;;;-0.48;79.86;96968.00;5033859;28;20056;-80
2023/12/18 08:33:44;;;;;;;92.93;42.17;;;;;;;-0.25;79.76;97019.50;5051424;22;20267;-87
2023/12/18 08:36:10;;;;;;;102.50;42.42;;;;;;;-1.63;79.50;96769.22;5032206;28;20155;-87
2023/12/18 08:38:35;;;;;;;89.68;40.28;;;;;;;-0.11;79.52;96996.22;5028926;28;20075;-86
2023/12/18 08:41:01;;;;;;;97.18;44.15;;;;;;;-0.86;79.12;96878.22;5047879;28;20041;-87
2023/12/18 08:43:27;;;;;;;98.20;44.90;;;;;;;-0.36;79.92;96978.09;5030851;28;20033;-87
2023/12/18 08:45:52;;;;;;;112.45;46.90;;;;;;;-0.66;79.78;96937.81;5025736;28;20047;-87
2023/12/18 08:48:18;;;;;;;101.28;45.13;;;;;;;-1.29;79.27;96805.53;5033285;28;20040;-86
2023/12/18 08:50:44;;;;;;;105.72;47.58;;;;;;;-0.68;79.32;96909.31;5025390;28;20096;-87
2023/12/18 08:53:35;;;;;;;106.07;45.88;;;;;;;-0.53;78.98;96938.97;5021119;28;20099;-85
2023/12/18 08:56:01;;;;;;;98.65;43.97;;;;;;;-2.46;78.59;96605.38;5026501;28;20111;-85
2023/12/18 08:58:29;;;;;;;103.70;45.05;;;;;;;-0.41;78.68;96898.59;5029377;28;20048;-85
2023/12/18 09:00:56;;;;;;;93.57;40.83;;;;;;;-1.84;78.37;96694.25;5032530;28;20037;-85
2023/12/18 09:03:22;;;;;;;90.35;39.40;;;;;;;-2.79;78.73;96536.13;5029698;28;20039;-85
2023/12/18 09:05:48;;;;;;;108.10;43.70;;;;;;;-2.28;78.49;96605.25;5028122;28;20037;-84
2023/12/18 09:08:13;;;;;;;97.70;39.83;;;;;;;-2.04;78.38;96636.50;5022340;28;20210;-84
2023/12/18 09:10:40;;;;;;;99.25;39.85;;;;;;;-1.11;78.48;96754.16;5022583;28;20500;-84
2023/12/18 09:13:08;;;;;;;104.18;44.50;;;;;;;-0.64;78.25;96822.03;5037470;28;20028;-86
2023/12/18 09:15:33;;;;;;;101.82;42.20;;;;;;;-1.17;78.36;96718.38;5031039;28;20460;-86
2023/12/18 09:17:59;;;;;;;107.55;41.28;;;;;;;-0.99;78.21;96757.28;5023349;28;20048;-87
2023/12/18 09:20:24;;;;;;;93.53;41.20;;;;;;;-1.22;78.28;96718.06;5041520;28;20040;-85
2023/12/18 09:22:53;;;;;;;101.45;42.88;;;;;;;0.21;78.25;96940.59;5020967;28;20036;-86
2023/12/18 09:25:19;;;;;;;100.38;41.35;;;;;;;-1.70;78.22;96630.38;5018707;28;20519;-84
2023/12/18 09:27:44;;;;;;;92.90;40.60;;;;;;;-0.13;77.76;96875.59;5022253;28;20083;-85
2023/12/18 09:30:10;;;;;;;90.30;40.80;;;;;;;-0.51;77.93;96793.69;5030635;28;20110;-84
2023/12/18 09:32:39;;;;;;;96.75;40.63;;;;;;;-1.13;77.75;96688.41;5033693;28;20443;-86
2023/12/18 09:35:05;;;;;;;90.00;40.88;;;;;;;0.57;77.70;96929.72;5033684;28;20127;-85
2023/12/18 09:37:37;;;;;;;97.60;41.63;;;;;;;0.59;77.26;96957.31;5038440;28;20025;-87
2023/12/18 09:40:05;;;;;;;102.80;42.30;;;;;;;-0.26;77.24;96776.22;5048134;28;20116;-87
2023/12/18 09:42:32;;;;;;;100.50;42.08;;;;;;;-1.13;76.72;96619.91;5041922;28;22683;-86
2023/12/18 09:45:04;;;;;;;95.75;42.88;;;;;;;-1.46;77.14;96564.50;5022243;28;20045;-87
2023/12/18 09:47:29;;;;;;;102.68;43.47;;;;;;;-2.31;76.63;96415.91;5029945;28;20044;-86
2023/12/18 09:49:58;;;;;;;100.43;43.10;;;;;;;-1.14;76.84;96589.69;5034700;28;20040;-86
2023/12/18 09:52:28;;;;;;;109.82;44.17;;;;;;;-1.97;76.96;96501.47;5028036;28;20039;-86
2023/12/18 09:54:54;;;;;;;93.85;43.17;;;;;;;-1.85;77.05;96470.75;5031124;28;20032;-86
2023/12/18 09:57:21;;;;;;;103.07;44.13;;;;;;;-1.17;77.13;96583.81;5033009;28;20044;-85
2023/12/18 09:59:48;;;;;;;104.35;41.53;;;;;;;-2.46;76.61;96410.53;5025385;28;20084;-84
2023/12/18 10:02:14;;;;;;;87.60;37.25;;;;;;;-0.35;77.05;96740.72;5045040;28;20045;-84
2023/12/18 10:04:41;;;;;;;74.22;34.78;;;;;;;0.99;76.44;96909.28;5019132;28;20033;-84
2023/12/18 10:07:07;;;;;;;83.18;36.60;;;;;;;0.95;76.12;96907.22;5028587;28;20025;-84
2023/12/18 10:09:35;;;;;;;85.03;36.08;;;;;;;1.08;76.47;96895.22;5037581;28;20120;-84
2023/12/18 10:12:03;;;;;;;77.70;36.15;;;;;;;-1.90;76.12;96413.22;5017424;28;20033;-85
2023/12/18 10:14:28;;;;;;;92.30;38.70;;;;;;;0.99;76.41;96788.34;5025316;28;20561;-83
2023/12/18 10:16:55;;;;;;;92.65;38.78;;;;;;;1.09;77.87;96681.78;5042202;28;20033;-85
2023/12/18 10:19:27;;;;;;;85.63;39.47;;;;;;;1.91;77.27;96683.31;5040550;28;20522;-85
2023/12/18 10:21:54;;;;;;;78.43;35.78;;;;;;;4.28;74.19;96884.78;5023158;28;20063;-83
2023/12/18 10:24:23;;;;;;;89.22;34.45;;;;;;;4.84;71.50;96805.81;5028038;28;20210;-84
2023/12/18 10:26:48;;;;;;;67.82;33.13;;;;;;;6.06;68.53;96850.31;5052917;28;20041;-84
2023/12/18 10:29:26;;;;;;;69.00;34.15;;;;;;;4.19;63.97;96433.50;5046959;28;20025;-85
2023/12/18 10:31:59;;;;;;;61.92;30.75;;;;;;;-143.51;100.00;62207.84;5025502;28;20075;-85
2023/12/18 10:34:25;;;;;;;72.85;34.03;;;;;;;-143.51;63.97;62207.84;5036888;28;20053;-85
2023/12/18 10:36:55;;;;;;;61.53;30.80;;;;;;;7.29;56.44;96646.91;5039733;28;20289;-86
2023/12/18 10:39:29;;;;;;;57.70;28.42;;;;;;;8.32;56.17;96728.13;5030947;28;20127;-84
2023/12/18 10:41:59;;;;;;;57.42;27.42;;;;;;;8.37;52.87;96700.03;5033798;28;20098;-85
2023/12/18 10:44:26;;;;;;;61.38;27.65;;;;;;;8.11;53.52;96635.03;5018599;28;21148;-85
2023/12/18 10:46:59;;;;;;;58.22;28.73;;;;;;;8.30;51.47;96613.88;5031390;28;20045;-88
2023/12/18 10:49:28;;;;;;;64.35;28.13;;;;;;;8.12;50.77;96662.28;5053037;28;20043;-86
2023/12/18 10:52:04;;;;;;;54.78;27.48;;;;;;;7.72;51.39;96586.13;5036057;28;20319;-87
2023/12/18 10:54:34;;;;;;;53.30;26.58;;;;;;;7.23;51.32;96515.03;5031200;28;20043;-86
2023/12/18 10:57:00;;;;;;;62.40;29.15;;;;;;;9.20;52.58;96858.09;5038766;28;20056;-87
2023/12/18 10:59:30;;;;;;;58.75;28.33;;;;;;;7.17;51.57;96503.50;5060862;28;20144;-88
2023/12/18 11:02:00;;;;;;;67.97;36.00;;;;;;;6.43;52.53;96491.22;5042433;28;20032;-86
2023/12/18 11:07:11;;;;;;;63.70;31.73;;;;;;;5.60;54.64;96387.09;5020702;28;20049;-85
2023/12/18 11:09:37;;;;;;;65.47;33.72;;;;;;;6.43;54.83;96656.44;5017448;28;20506;-85
2023/12/18 11:12:04;;;;;;;77.22;34.97;;;;;;;4.56;55.72;96355.84;5009237;28;20033;-87
2023/12/18 11:14:54;;;;;;;61.90;35.47;;;;;;;3.01;56.65;96124.81;5010901;28;20512;-83
2023/12/18 11:20:48;;;;;;;83.28;40.25;;;;;;;2.98;61.16;96178.44;5026060;28;20052;-86